x

8454049 - Quonset Point, Ri (qptr1) Weather Station

3:54 - Thu 26th May 2016 All times are EDT. -4 hours from GMT.

  • Wind
    6mph, 7mph gusts
  • Sea Temp 59°f
  • Luft Temp 66°f
  • Sea Pressure 1017.4mb
  • 8454049 - Quonset Point, Ri
  • 8454049 - Quonset Point, Ri

More Historic Weather Station data

Upgrade to MSW Pro to gain access to the past 30 days of data for over 8000 Wavebouys and Weather Stations around the globe.

Join Pro

Comparision Forecast

View Surf forecast
   
Do 05/26 3:54 6 7 mph 1017.4mb 59f 66f
3:48 2 3 mph 1017.3mb 59f 66f
3:42 3 6 mph 1017.3mb 59f 67f
3:36 6 9 mph 1017.3mb 59f 71f
3:30 7 9 mph 1017.1mb 59f 71f
3:24 6 8 mph 1017.2mb 58f 70f
3:18 6
mph
1017.2mb 58f 69f
3:12 6 10 mph 1017.2mb 58f 67f
3:06 8 9 mph 1017.2mb 58f 67f
3:00 8 10 mph 1017.1mb 58f 67f
2:54 9 10 mph 1017.1mb 57f 66f
2:48 9
mph
1017.1mb 57f 65f
2:42 8 9 mph 1017.1mb 57f 66f
2:36 9
mph
1017mb 57f 67f
2:30 9
mph
1016.9mb 58f 66f
2:24 8 9 mph 1016.8mb 58f 66f
2:18 9
mph
1016.7mb 58f 65f
2:12 8 9 mph 1016.8mb 58f 65f
2:06 8 9 mph 1016.8mb 58f 65f
2:00 7 8 mph 1016.8mb 58f 66f
1:54 7 8 mph 1016.8mb 58f 68f
1:48 7 8 mph 1016.8mb 58f 67f
1:42 8
mph
1016.7mb 58f 67f
1:36 7 10 mph 1016.7mb 58f 66f
1:30 9 10 mph 1016.6mb 58f 66f
1:24 8 9 mph 1016.5mb 58f 66f
1:18 8
mph
1016.5mb 58f 65f
1:12 8 10 mph 1016.5mb 58f 65f
1:06 10
mph
1016.5mb 58f 67f
1:00 10 11 mph 1016.5mb 58f 67f
12:54 10 11 mph 1016.6mb 58f 67f
12:48 10
mph
1016.6mb 58f 67f
12:42 10
mph
1016.6mb 58f 67f
12:36 10
mph
1016.6mb 58f 67f
12:30 9 10 mph 1016.7mb 58f 67f
12:24 9 10 mph 1016.6mb 58f 68f
12:18 9 10 mph 1016.7mb 58f 68f
12:12 9 11 mph 1016.8mb 58f 67f
12:06 10 11 mph 1016.8mb 58f 67f
12:00 10 11 mph 1016.8mb 58f 67f
Mi 05/25 11:54 10 11 mph 1016.8mb 58f 68f
11:48  -  mph 1016.8mb 58f 69f
11:42  -  mph 1016.8mb 58f 68f
11:36  -  mph 1016.8mb 58f 68f
11:30 11 13 mph 1016.7mb 58f 69f
11:24 11 13 mph 1016.7mb 58f 69f
11:18  -  mph 1016.7mb 58f 69f
11:12  -  mph 1016.7mb 58f 69f
11:06  -  mph 1016.6mb 58f 69f
11:00  -  mph - 58f 69f
10:54  -  mph - 58f 70f
10:48  -  mph 1016.7mb - -
10:42  -  mph 1016.7mb - -
10:36  -  mph 1016.7mb - -
10:30 11
mph
1016.8mb 58f -
10:24 10 11 mph 1016.7mb 58f -
10:18  -  mph 1016.7mb 58f 70f
10:12  -  mph 1016.7mb 58f 71f
10:06  -  mph 1016.6mb 58f 71f
10:00 10
mph
1016.6mb 58f -
9:54 9 10 mph 1016.7mb 58f -
9:48  -  mph 1016.6mb 59f -
9:42  -  mph 1016.6mb 59f -
9:36  -  mph 1016.5mb 59f -
9:30 10 11 mph 1016.4mb - -
9:24 10 11 mph 1016.4mb - -
9:18 9 10 mph 1016.3mb 60f -
9:12 8 9 mph 1016.3mb 60f -
9:06 10
mph
1016.3mb 60f -
9:00  -  mph 1016.3mb 60f -
8:54  -  mph 1016.2mb 60f -
8:48  -  mph 1016mb 60f -
8:42  -  mph 1015.9mb 60f -
8:36  -  mph 1015.9mb 61f -
8:30 9 10 mph 1015.9mb 62f -
8:24 9
mph
1015.8mb 62f -
8:18  -  mph 1015.7mb 62f 72f
8:12  -  mph 1015.6mb 63f 73f
8:06  -  mph 1015.6mb 63f 73f
8:00 11 13 mph 1015.4mb 63f -
7:54 11 13 mph 1015.5mb 64f -
7:48 11 13 mph - 64f -
7:42 11 13 mph - 64f -
7:36 13 14 mph - 64f -
7:30 13 15 mph 1015.4mb 65f -
7:24 14
mph
1015.4mb 65f -
7:18  -  mph 1015.4mb 65f 77f
7:12  -  mph 1015.4mb 65f 76f
7:06  -  mph 1015.4mb 65f 78f
7:00  -  mph 1015.3mb 64f -
6:54  -  mph 1015.3mb 64f -
6:48 16 18 mph 1015.2mb - -
6:42 16 18 mph 1015.2mb - -
6:36 16 21 mph 1015.2mb - -
6:30 18 22 mph 1015mb - -
6:24 17 20 mph 1014.9mb - -
6:18 20 22 mph 1014.8mb 64f 80f
6:12 13 17 mph 1014.8mb 64f 79f
6:06 16 20 mph 1014.7mb 64f 79f
6:00 11 14 mph 1014.8mb 64f -
5:54 14 18 mph 1014.8mb 64f -
5:48  -  mph 1014.8mb - -
5:42  -  mph 1014.8mb - -
5:36  -  mph 1014.9mb - -
5:30 11 15 mph 1014.8mb 65f 78f
5:24 14 15 mph 1014.8mb 65f 78f
5:18 9 13 mph 1014.8mb 65f 81f
5:12 9 16 mph 1014.8mb 65f 79f
5:06 13 15 mph 1014.9mb 65f 79f
5:00 11 15 mph 1014.9mb 65f 79f
4:54 15 17 mph 1014.8mb 65f 79f
4:48 15 17 mph 1014.8mb 65f 79f
4:42 17 18 mph 1014.7mb 65f 79f
4:36 15 16 mph 1014.7mb 65f 80f
4:30 15 17 mph 1014.7mb 64f 78f
4:24 15 18 mph 1014.6mb 64f 80f
4:18 13 15 mph 1014.7mb 64f 80f
4:12 14 16 mph 1014.7mb 64f 81f
4:06 11 20 mph 1014.7mb 63f 84f
4:00 14 18 mph 1014.5mb 63f 86f
3:54 11 17 mph 1014.5mb 62f 86f
3:48 13 18 mph 1014.5mb 62f 86f
3:42 15 20 mph 1014.5mb 62f 83f
3:36 7 11 mph 1014.5mb 62f 84f
3:30 5 7 mph 1014.6mb 61f 81f
3:24 7 9 mph 1014.7mb 62f 80f
3:18 7 9 mph 1014.7mb 62f 81f
3:12 8 10 mph 1014.9mb 62f 74f
3:06 8 10 mph 1014.9mb 61f 74f
3:00 8 13 mph 1015mb 61f 76f
2:54 10 13 mph 1015.1mb 61f 74f
2:48 9 10 mph 1015.1mb 61f 74f
2:42 7 8 mph 1015.2mb 61f 73f
2:36 1 6 mph 1015.2mb 61f 73f
2:30 3 7 mph 1015.2mb 60f 71f
2:24 6 9 mph 1015.2mb 60f 71f
2:18 7 8 mph 1015.3mb 60f 73f
2:12 7 8 mph 1015.2mb 59f 69f
2:06 7 9 mph 1015.3mb 59f 72f
2:00 8
mph
1015.2mb 59f 71f
1:54 6 7 mph 1015.3mb 59f 70f
1:48 6 7 mph 1015.3mb 59f 70f
1:42 3 6 mph 1015.3mb 59f 68f
1:36 6 8 mph 1015.3mb 59f 69f
1:30 8
mph
1015.4mb 59f 68f
1:24 7 8 mph 1015.5mb 59f 66f
1:18 8
mph
1015.6mb 59f 67f
1:12 7 8 mph 1015.7mb 59f 67f
1:06 6
mph
1015.7mb 59f 67f
1:00 6 7 mph 1015.8mb 60f 67f
12:54 7 8 mph 1015.8mb 60f 66f
12:48 7 8 mph 1015.8mb 60f 66f
12:42 6
mph
1015.9mb 60f 67f
12:36 6 9 mph 1015.9mb 60f 67f
12:30 10 11 mph 1015.9mb 60f 67f
12:24 9 10 mph 1015.9mb 60f 66f
12:18 7 8 mph 1015.9mb 60f 65f
12:12 6
mph
1016.1mb 60f 65f
12:06 3 6 mph 1016.2mb 61f 65f
12:00 5 8 mph 1016.2mb 61f 66f
11:54 7 9 mph 1016.2mb 61f 66f
11:48 6 10 mph 1016.3mb 60f 64f
11:42 10 13 mph 1016.2mb 60f 64f
11:36 11 13 mph 1016.3mb 60f 64f
11:30 10 13 mph 1016.3mb 60f 63f
11:24 13 14 mph 1016.3mb 61f 62f
11:18 14 15 mph 1016.3mb 61f 62f
11:12 13 15 mph 1016.3mb 61f 62f
11:06 15 16 mph 1016.3mb 61f 62f
11:00 14 15 mph 1016.3mb 61f 61f
10:54 13 14 mph 1016.3mb 61f 61f
10:48 13 14 mph 1016.3mb 61f 61f
10:42 13 14 mph 1016.4mb 61f 61f
10:36 14
mph
1016.4mb 61f 61f
10:30 13 14 mph 1016.4mb 61f 61f
10:24 14 15 mph 1016.5mb 61f 61f
10:18 14 15 mph 1016.5mb 61f 60f
10:12 14 15 mph 1016.5mb 60f 61f
10:06 14 15 mph 1016.5mb 60f 61f
10:00 14 15 mph 1016.5mb 60f 61f
9:54 14 15 mph 1016.5mb 60f 60f
9:48 13 14 mph 1016.5mb 60f 60f
9:42 13 14 mph 1016.4mb 60f 60f
9:36 13 14 mph 1016.4mb 60f 60f
9:30 10 11 mph 1016.4mb 60f 60f
9:24 10 11 mph 1016.4mb 60f 60f
9:18 10 11 mph 1016.4mb 60f 60f
9:12 10 11 mph 1016.4mb 60f 60f
9:06 10 11 mph 1016.4mb 60f 60f
9:00 10 11 mph 1016.4mb 60f 60f
8:54 9 10 mph 1016.5mb 60f 60f
8:48 9 10 mph 1016.6mb 60f 59f
8:42 9 10 mph 1016.5mb 60f 59f
8:36 8 9 mph 1016.6mb 60f 59f
8:30 8 9 mph 1016.6mb 60f 59f
8:24 7 8 mph 1016.8mb 60f 59f
8:18 8
mph
1016.8mb 60f 59f
8:12 8
mph
1016.9mb 60f 58f
8:06 8 9 mph 1016.9mb 60f 58f
8:00 8
mph
1016.8mb 60f 58f
7:54 8
mph
1016.8mb 60f 58f
7:48 7 8 mph 1016.8mb 60f 58f
7:42 7 8 mph 1016.8mb 60f 58f
7:36 6
mph
1016.8mb 60f 58f
7:30 5 6 mph 1016.8mb 60f 58f
7:24 5 6 mph 1016.8mb 60f 58f
7:18 5 6 mph 1016.7mb 60f 58f
7:12 5 6 mph 1016.6mb 60f 58f
7:06 5 6 mph 1016.7mb 60f 58f
7:00 5 6 mph 1016.7mb 60f 58f
6:54 5 7 mph 1016.8mb 60f 59f
6:48 7
mph
1016.7mb 60f 58f
6:42 7
mph
1016.6mb 60f 58f
6:36 6
mph
1016.6mb 60f 58f
6:30 5 6 mph 1016.6mb 60f 58f
6:24 5
mph
1016.5mb 60f 58f
6:18 5
mph
1016.3mb 60f 57f
6:12 3 5 mph 1016.2mb 60f 57f
6:06 2 3 mph 1016.3mb 60f 57f
6:00 3 5 mph 1016.3mb 60f 58f
5:54 3 5 mph 1016.2mb 60f 58f
5:48 2 3 mph 1016.2mb 60f 57f
5:42 3
mph
1016.3mb 60f 57f
5:36 2 3 mph 1016.3mb 60f 57f
5:30 2 3 mph 1016.4mb 60f 57f
5:24 2
mph
1016.4mb 60f 57f
5:18  -  1 mph 1016.4mb 60f 57f
5:12 1 2 mph 1016.4mb 60f 57f
5:06 2 3 mph 1016.4mb 60f 57f
5:00 2 3 mph 1016.4mb 60f 57f
4:54  -  1 mph 1016.3mb 60f 57f
4:48  -  1 mph 1016.3mb 60f 57f
4:42  -  mph 1016.3mb 60f 57f
4:36  -  1 mph 1016.4mb 60f 57f
4:30 1 2 mph 1016.3mb 60f 57f
4:24 3
mph
1016.4mb 60f 57f
4:18 2 3 mph 1016.4mb 60f 56f
4:12 1 2 mph 1016.2mb 60f 56f
4:06 1 3 mph 1016.1mb 60f 56f
4:00 2 3 mph 1016mb 60f 56f
3:54 3
mph
1016.1mb 60f 56f
3:48 1 2 mph 1016.1mb 60f 56f
3:42  -  mph 1016.1mb 60f 56f
3:36  -  2 mph 1016mb 60f 56f
3:30 2 3 mph 1015.9mb 60f 56f
3:24 3 6 mph 1016mb 60f 56f
3:18 5 6 mph 1015.7mb 60f 56f
3:12 5 6 mph 1015.6mb 60f 56f
3:06 5 6 mph 1015.8mb 60f 56f
3:00 2 3 mph 1015.9mb 60f 56f
2:54 3 5 mph 1015.9mb 60f 56f
2:48 2 3 mph 1015.8mb 60f 56f
2:42 2 3 mph 1015.7mb 60f 56f
2:36 1 2 mph 1015.6mb 60f 56f
2:30  -  2 mph 1015.8mb 60f 56f
2:24 1 2 mph 1015.9mb 59f 56f
2:18 1 5 mph 1015.7mb 59f 56f
2:12 3
mph
1015.5mb 59f 56f
2:06 3 6 mph 1015.7mb 59f 56f
2:00 6
mph
1015.3mb 59f 56f
1:54 5 6 mph 1015.2mb 59f 56f
1:48 2
mph
1015.2mb 59f 57f
1:42 1 2 mph 1015.4mb 59f 56f
1:36 2 3 mph 1015.5mb 59f 57f
1:30 2 3 mph 1015.5mb 59f 57f
1:24 3 5 mph 1015.4mb 59f 57f
1:18 3 5 mph 1015.3mb 60f 56f
1:12 5 6 mph 1015.4mb 60f 57f
1:06 5 6 mph 1015.4mb 60f 56f
1:00 5 6 mph 1015.3mb 60f 56f
12:54 5 6 mph 1015.5mb 60f 56f
12:48 3 6 mph 1015.5mb 60f 56f
12:42 5 6 mph 1015.4mb 60f 56f
12:36 5 6 mph 1015.2mb 60f 56f
12:30 5 6 mph 1015.3mb 60f 56f
12:24 5 6 mph 1015.4mb 60f 56f
12:18 5 7 mph 1015.4mb 60f 56f
12:12 6 7 mph 1015.5mb 60f 56f
12:06 6 7 mph 1015.4mb 61f 56f
12:00 5 6 mph 1015.3mb 61f 57f
Di 05/24 11:54 5 7 mph 1015.3mb 61f 57f
11:48  -  mph 1015.3mb 61f 56f
11:42  -  mph 1015.3mb 61f 57f
11:36  -  mph 1015.3mb 61f 57f
11:30 5 6 mph 1015.3mb 61f 57f
11:24 3 6 mph 1015.3mb 61f 57f
11:18  -  mph 1015.3mb 61f 57f
11:12  -  mph 1015.3mb 61f 57f
11:06  -  mph 1015.3mb 61f 56f
11:00 6 8 mph 1015.3mb 61f 57f
10:54 6
mph
1015.2mb 61f 57f
10:48 5 6 mph - - -
10:42 5
mph
- - -
10:36 5 6 mph - - -
10:30 5 7 mph - 61f -
10:24 6 8 mph - 61f -
10:18  -  mph 1015.2mb 61f 56f
10:12  -  mph 1015mb 61f 56f
10:06  -  mph 1015mb 61f 56f
10:00  -  mph 1014.9mb 61f 56f
9:54  -  mph 1014.8mb 61f 56f
9:48  -  mph 1014.8mb - -
9:42  -  mph 1014.6mb - -
9:36  -  mph 1014.7mb - -
9:30 7 9 mph 1014.8mb 61f -
9:24 7 9 mph 1014.8mb 61f -
9:18  -  mph 1014.7mb 61f 56f
9:12  -  mph 1014.6mb 61f 56f
9:06  -  mph 1014.6mb 61f 56f
9:00  -  mph 1014.5mb 61f -
8:54  -  mph 1014.4mb 61f -
8:48  -  mph 1014.3mb - -
8:42  -  mph 1014.1mb - -
8:36  -  mph 1014mb - -
8:30 9 13 mph 1013.9mb - 56f
8:24 10 13 mph 1013.9mb - 56f
8:18  -  mph 1013.8mb 61f 56f
8:12  -  mph 1013.8mb 61f 56f
8:06  -  mph 1013.8mb 61f 56f
8:00  -  mph 1013.9mb - 56f
7:54  -  mph 1013.8mb - 56f
7:48 10 14 mph - 61f -
7:42 10 13 mph - 61f -
7:36 10 13 mph - 61f -
7:30  -  mph 1013.8mb 61f -
7:24  -  mph 1013.7mb 61f -
7:18  -  mph 1013.7mb 61f 57f
7:12  -  mph 1013.6mb 61f 57f
7:06  -  mph 1013.6mb 61f 57f
7:00  -  mph 1013.6mb 61f 57f
6:54  -  mph 1013.6mb 61f 57f
6:48  -  mph 1013.5mb 61f 57f
6:42  -  mph 1013.4mb 61f 58f
6:36  -  mph 1013.3mb 61f 58f
6:30 11 15 mph 1013.3mb 61f -
6:24 13 15 mph 1013.2mb 61f -
6:18 10 13 mph 1013.2mb 61f -
6:12 10 13 mph 1013.1mb 61f -
6:06 13 14 mph 1013mb 61f -
6:00  -  mph - - 58f
5:54  -  mph - - 58f
5:48  -  mph 1012.9mb 61f 58f
5:42  -  mph 1012.9mb 61f 58f
5:36  -  mph 1012.8mb 61f 58f
5:30 10 13 mph 1012.8mb 61f 58f
5:24 10 14 mph 1012.7mb 61f 58f
5:18 9 14 mph 1012.7mb 61f 58f
5:12 9 14 mph 1012.7mb 60f 58f
5:06 10 13 mph 1012.6mb 60f 58f
5:00 9 13 mph 1012.7mb 60f 58f
4:54 9 13 mph 1012.7mb 60f 58f
4:48 11 14 mph 1012.7mb 60f 58f
4:42 10 14 mph 1012.7mb 60f 58f
4:36 13 14 mph 1012.6mb 60f 58f
4:30 11 14 mph 1012.4mb 60f 58f
4:24 13 16 mph 1012.4mb 60f 58f
4:18 13 15 mph 1012.4mb 60f 58f
4:12 13 14 mph 1012.3mb 60f 58f
4:06 14 16 mph 1012.4mb 60f 58f
4:00 14 15 mph 1012.3mb 60f 58f
3:54 14 15 mph 1012.2mb 60f 59f
3:48 11 14 mph 1012.3mb 60f 58f
3:42 11 14 mph 1012.3mb 60f 59f
3:36 11 15 mph 1012.4mb 60f 59f
3:30 11 14 mph 1012.4mb 60f 59f
3:24 13 15 mph 1012.4mb 60f 59f
3:18 13 15 mph 1012.4mb 60f 59f
3:12 10 14 mph 1012.5mb 60f 59f
3:06 14 15 mph 1012.4mb 60f 58f
3:00 13 16 mph 1012.3mb 60f 59f
2:54 13 15 mph 1012.3mb 60f 59f
2:48 13 15 mph 1012.3mb 60f 58f
2:42 13 16 mph 1012.4mb 60f 58f
2:36 16 17 mph 1012.4mb 60f 58f
2:30 15 17 mph 1012.4mb 60f 58f
2:24 14 17 mph 1012.3mb 59f 58f
2:18 14 17 mph 1012.2mb 59f 58f
2:12 16 17 mph 1012mb 59f 58f
2:06 15 16 mph 1012mb 59f 58f
2:00 15 18 mph 1012mb 59f 58f
1:54 15 17 mph 1012.1mb 59f 58f
1:48 15 20 mph 1012.1mb 59f 58f
1:42 15 17 mph 1012.1mb 59f 57f
1:36 15 18 mph 1012.1mb 59f 58f
1:30 15 18 mph 1012mb 59f 57f
1:24 16 18 mph 1012mb 59f 57f
1:18 14 20 mph 1012mb 59f 58f
1:12 16 18 mph 1012mb 59f 57f
1:06 17 20 mph 1012mb 59f 58f
1:00 16 18 mph 1012mb 59f 57f
12:54 16 18 mph 1012.1mb 59f 57f
12:48 16 18 mph 1012.2mb 59f 57f
12:42 15 17 mph 1012.2mb 59f 57f
12:36 14 16 mph 1012.3mb 59f 56f
12:30 16 18 mph 1012.3mb 59f 56f
12:24 15 17 mph 1012.3mb 59f 56f
12:18 15 17 mph 1012.3mb 59f 56f
12:12 16 17 mph 1012.2mb 59f 56f
12:06 15 17 mph 1012.2mb 59f 56f
12:00 14 16 mph 1012.2mb 59f 56f
11:54 16 17 mph 1012.2mb 59f 56f
11:48 14 16 mph 1012.2mb 59f 56f
11:42 14 15 mph 1012.3mb 59f 55f
11:36 14 16 mph 1012.2mb 59f 55f
11:30 15 17 mph 1012.1mb 59f 56f
11:24 15 17 mph 1012mb 59f 55f
11:18 15 17 mph 1012mb 59f 55f
11:12 16 18 mph 1012mb 59f 55f
11:06 17 20 mph 1012mb 59f 55f
11:00 17 20 mph 1011.9mb 60f 55f
10:54 16 17 mph 1012mb 60f 56f
10:48 15 20 mph 1012mb 60f 56f
10:42 18 20 mph 1012mb 60f 55f
10:36 16 20 mph 1012mb 60f 56f
10:30 16 21 mph 1011.9mb 60f 56f
10:24 17 20 mph 1011.8mb 60f 56f
10:18 17 21 mph 1011.7mb 60f 56f
10:12 18 21 mph 1011.6mb 60f 55f
10:06 18 21 mph 1011.6mb 60f 55f
10:00 18 22 mph 1011.6mb 60f 55f
9:54 18 22 mph 1011.6mb 60f 55f
9:48 20 22 mph - 60f 55f
9:42 18 22 mph - 60f 55f
9:36 20 22 mph - 61f 55f
9:30 18 21 mph 1011.6mb 61f 55f
9:24 18 22 mph 1011.6mb 61f 55f
8:54 18 22 mph 1011.6mb 61f 55f
8:48 18 22 mph 1011.6mb 61f 55f
8:42 20 23 mph 1011.5mb 61f 55f
8:36 17 21 mph 1011.5mb 61f 55f
8:30 18 22 mph 1011.5mb 61f 55f
8:24 20 22 mph 1011.6mb 61f 55f
8:18 17 22 mph 1011.6mb 61f 55f
8:12 20 22 mph 1011.5mb 61f 55f
8:06 20 23 mph 1011.4mb 61f 55f
8:00 21 22 mph 1011.3mb 61f 55f
7:54 20 22 mph 1011.4mb 61f 55f
7:48 18 22 mph 1011.6mb 61f 55f
7:42 17 21 mph 1011.6mb 61f 55f
7:36 21 23 mph 1011.5mb 61f 55f
7:30 20 22 mph 1011.4mb 61f 55f
7:24 20 23 mph 1011.4mb 61f 55f
7:18 21 24 mph 1011.4mb 61f 56f
7:12 20 23 mph 1011.3mb 60f 55f
7:06 20 22 mph 1011.3mb 60f 55f
7:00 20 24 mph 1011.4mb 60f 56f
6:54 21 24 mph 1011.4mb 60f 56f
6:48 20 22 mph 1011.2mb 60f 56f
6:42 18 24 mph 1011.1mb 60f 56f
6:36 20 22 mph 1011.1mb 60f 56f
6:30 20 22 mph 1011.1mb 60f 56f
6:24 18 22 mph 1011.2mb 60f 56f
6:18 17 21 mph 1011.3mb 60f 56f
6:12 18 22 mph 1011.4mb 60f 56f
6:06 17 20 mph 1011.5mb 60f 55f
6:00 20 22 mph 1011.5mb 60f 56f
5:54 21 23 mph 1011.5mb 59f 56f
5:48 20 23 mph 1011.4mb 59f 55f
5:42 18 21 mph 1011.4mb 59f 56f
5:36 17 22 mph 1011.4mb 59f 56f
5:30 20 24 mph 1011.3mb 59f 56f
5:24 22 26 mph 1011.3mb 59f 56f
5:18 21 23 mph 1011.3mb 59f 56f
5:12 18 22 mph 1011.3mb 59f 56f
5:06 21 22 mph 1011.2mb 59f 56f
5:00 21 24 mph 1011.1mb 59f 56f
4:54 21 25 mph 1010.9mb 59f 56f
4:48 21 24 mph 1011mb 59f 56f
4:42 21 24 mph 1011mb 59f 56f
4:36 20 23 mph 1011mb 59f 56f
4:30 23 26 mph 1011mb 59f 57f
4:24 18 22 mph 1011.3mb 59f 57f
4:18 15 20 mph 1011.4mb 59f 57f
4:12 15 18 mph 1011.5mb 59f 57f
4:06 17 20 mph 1011.4mb 59f 57f
4:00 17 20 mph 1011.3mb 59f 58f
3:54 16 20 mph 1011.3mb 59f 58f
3:48 18 22 mph 1011.4mb 59f 58f
3:42 18 22 mph 1011.4mb 59f 58f
3:36 18 22 mph 1011.1mb 58f 58f
3:30 20 23 mph 1011mb 58f 58f
3:24 20 23 mph 1010.9mb 58f 59f
3:18 20 22 mph 1011mb 58f 59f
3:12 18 21 mph 1010.9mb 58f 59f
3:06 18 21 mph 1010.8mb 58f 59f
3:00 17 18 mph 1010.7mb 58f 60f
2:54 15 16 mph 1010.8mb 58f 60f
2:48 16 20 mph 1011.1mb 57f 60f
2:42 17 20 mph 1010.8mb 57f 60f
2:36 18 20 mph 1010.9mb 57f 60f
2:30 17 20 mph 1011mb 57f 60f
2:24 16 18 mph 1011.2mb 57f 60f
2:18 15 16 mph 1011.4mb 57f 60f
2:12 14 15 mph 1011.4mb 57f 61f
2:06 13 14 mph 1011.5mb 57f 61f
2:00 13 14 mph 1011.5mb 57f 61f
1:54 14 17 mph 1011.5mb 57f 62f
1:48  -  mph 1011.6mb 57f 62f
1:42  -  mph 1011.8mb 57f 61f
1:36  -  mph 1011.8mb 57f 62f
1:30 11 15 mph 1011.7mb 58f 62f
1:24 13 15 mph 1011.7mb 58f 62f
1:18 13 14 mph 1011.8mb 58f 62f
1:12 14 16 mph 1011.7mb 58f 62f
1:06 13 16 mph 1011.6mb 58f 63f
1:00 13 16 mph 1011.7mb 58f 63f
12:54 13 16 mph 1011.7mb 58f 63f
12:48 13 15 mph 1011.9mb 59f 63f
12:42 14 16 mph 1011.9mb 59f 64f
12:36 8 10 mph 1011.9mb 59f 63f
12:30 9 11 mph 1012.1mb 59f 63f
12:24 9 11 mph 1012.1mb 59f 63f
12:18 8 10 mph 1012.1mb 59f 63f
12:12 6 7 mph 1012.1mb 59f 63f
12:06 5 7 mph 1012.2mb 59f 63f
12:00 7 8 mph 1012.2mb 59f 62f
Mo 05/23 11:54 7 8 mph 1012.2mb 59f 62f
11:48 5 9 mph 1012.3mb 59f 62f
11:42 6 9 mph 1012.4mb 59f 62f
11:36 3 5 mph 1012.5mb 59f 63f
11:30 3 5 mph 1012.6mb 59f 62f
11:24 5 7 mph 1012.6mb 60f 62f
11:18  -  mph 1012.6mb 60f 62f
11:12  -  mph 1012.8mb 60f 61f
11:06  -  mph 1012.7mb 60f 61f
11:00  -  mph - 60f -
10:54  -  mph - 60f -
10:48  -  mph 1012.7mb 60f -
10:42  -  mph 1012.7mb 60f -
10:36  -  mph 1012.6mb 60f -
10:30 7
mph
1012.5mb 61f 61f
10:24 6 7 mph 1012.5mb 61f 61f
10:18 6 8 mph 1012.6mb 61f -
10:12 6 7 mph 1012.6mb 61f -
10:06 7 8 mph 1012.5mb 61f -
10:00 3 5 mph 1012.5mb 61f 62f
9:54 5 6 mph 1012.6mb 60f 62f
9:48 5 6 mph - 60f -
9:42 5
mph
- 60f -
9:36 5 6 mph - 60f -
9:30  -  mph - 60f -
9:24  -  mph - 60f -
9:18  -  mph - 60f -
9:12  -  mph - 60f -
9:06  -  mph - 60f -
9:00  -  mph - 60f 63f
8:54  -  mph - 60f 63f
8:48 5 6 mph 1011.9mb - -
8:42 6
mph
1011.9mb - -
8:36 7 9 mph 1011.9mb - -
8:30  -  mph 1011.9mb 62f -
8:24  -  mph 1011.9mb 62f -
8:18 9 10 mph - 62f -
8:12 6 8 mph - 62f -
8:06 7 8 mph - 62f -
8:00 6 10 mph 1011.9mb 62f 65f
7:54 8 9 mph 1011.9mb 62f 65f
7:48  -  mph 1011.8mb - -
7:42  -  mph 1011.8mb - -
7:36  -  mph 1011.9mb - -
7:30  -  mph - 62f -
7:24  -  mph - 62f -
7:18  -  mph 1012.1mb 62f -
7:12  -  mph 1012.1mb 62f -
7:06  -  mph 1012.1mb 62f -
7:00  -  mph 1012mb 62f -
6:54  -  mph 1011.9mb 62f -
6:48  -  mph - 62f -
6:42  -  mph - 62f -
6:36  -  mph - 62f -
6:30 10 11 mph 1011.3mb 62f 68f
6:24 7
mph
1011.2mb 62f 67f
6:18  -  mph 1011.3mb 62f -
6:12  -  mph 1011.4mb 62f -
6:06  -  mph 1011.4mb 62f -
6:00  -  mph 1011.2mb 62f 68f
5:54  -  mph 1011.2mb 62f 66f
5:48  -  mph 1011.3mb - -
5:42  -  mph 1011.2mb - -
5:36  -  mph 1011.3mb - -
5:30 9 10 mph 1011.4mb 62f 67f
5:24 9 11 mph 1011.4mb 62f 67f
5:18 9 11 mph 1011.3mb 62f 66f
5:12 8 10 mph 1011.2mb 62f 66f
5:06 8 13 mph 1011.2mb 62f 67f
5:00 9 10 mph 1011.3mb 62f 67f
4:54 10 11 mph 1011.3mb 62f 68f
4:48 6 13 mph 1011.3mb 62f 69f
4:42 11 13 mph 1011.3mb 62f 66f
4:36 8 10 mph 1011.5mb 62f 66f
4:30 9 13 mph 1011.5mb 61f 67f
4:24 11 13 mph 1011.5mb 61f 67f
4:18 13 14 mph 1011.6mb 61f 67f
4:12 11 13 mph 1011.7mb 61f 67f
4:06 9 11 mph 1011.7mb 61f 67f
4:00 5 9 mph 1011.7mb 61f 67f
3:54 10 11 mph 1011.7mb 61f 67f
3:48 11 13 mph 1011.7mb 61f 67f
3:42 11
mph
1011.8mb 61f 67f
3:36 10 11 mph 1011.8mb 61f 67f
3:30 8
mph
1011.8mb 60f 67f
3:24 8 11 mph 1011.9mb 60f 68f
3:18 11 13 mph 1012mb 60f 67f
3:12 10 11 mph 1011.9mb 60f 67f
3:06 9 11 mph 1011.9mb 60f 68f
3:00 10 13 mph 1012mb 59f 68f
2:54 10
mph
1012mb 59f 68f
2:48 6 9 mph 1012mb 59f 69f
2:42 9 10 mph 1012mb 59f 69f
2:36 8 11 mph 1012mb 59f 70f
2:30 8 9 mph 1011.9mb 59f 70f
2:24 7 10 mph 1011.9mb 59f 72f
2:18 6 8 mph 1011.9mb 59f 72f
2:12 6 7 mph 1012mb 59f 72f
2:06 6 7 mph 1012mb 59f 72f
2:00 5 6 mph 1012.1mb 59f -
1:54 3 5 mph 1012.1mb 58f -
1:48  -  mph - - 71f
1:42  -  mph - - 71f
1:36  -  mph - - 71f
1:30 3 5 mph 1012.1mb 58f 71f
1:24 3
mph
1012.1mb 58f 71f
1:18 1 2 mph 1012.2mb 58f 71f
1:12 1 2 mph 1012.3mb 57f 71f
1:06 3 5 mph 1012.4mb 57f 69f
1:00 5
mph
1012.5mb 57f 69f
12:54 5
mph
1012.6mb 57f 68f
12:48 5 6 mph 1012.7mb 57f 68f
12:42 5 6 mph 1012.7mb 57f 68f
12:36 5
mph
1012.7mb 57f 68f
12:30 5 6 mph 1012.6mb 57f 68f
12:24 5
mph
1012.6mb 57f 67f
12:18 3 5 mph 1012.7mb 57f 67f
12:12 3 5 mph 1012.7mb 57f 67f
12:06 3 5 mph 1012.7mb 57f 67f
12:00 5
mph
1012.7mb 57f 66f
11:54 5 6 mph 1012.7mb 58f 67f
11:48 5
mph
1012.8mb 58f 66f
11:42 5 6 mph 1012.9mb 58f 65f
11:36 6
mph
1012.9mb 58f 65f
11:30 6
mph
1012.9mb 58f 64f
11:24 7
mph
1013mb 58f 64f
11:18 7 8 mph 1013.1mb 58f 63f
11:12 8 9 mph 1013mb 58f 63f
11:06 9
mph
1012.9mb 58f 63f
11:00 9
mph
1013mb 58f 63f
10:54 7 8 mph 1013.1mb 58f 63f
10:48 8
mph
1013.1mb 59f 63f
10:42 7 8 mph 1013.2mb 59f 62f
10:36 7 8 mph 1013.2mb 59f 62f
10:30 7 8 mph 1013.3mb 59f 61f
10:24 8
mph
1013.2mb 59f 61f
10:18 6 7 mph 1013.3mb 59f 61f
10:12 6 7 mph 1013.4mb 59f 61f
10:06 6 7 mph 1013.5mb 59f 60f
10:00 6
mph
1013.6mb 59f 61f
9:54 6
mph
1013.6mb 59f 60f
9:48 3 5 mph 1013.7mb 59f 60f
9:42 1 2 mph 1013.7mb 59f 61f
9:36  -  1 mph 1013.7mb 59f 61f
9:30 1 2 mph 1013.7mb 59f 60f
9:24 1
mph
1013.8mb 59f 60f
9:18 2
mph
1013.8mb 59f 59f
9:12 1 2 mph 1013.8mb 59f 59f
9:06 2
mph
1013.8mb 59f 59f
9:00 1 2 mph 1013.8mb 59f 59f
8:54 1 2 mph 1013.9mb 59f 59f
8:48  -  mph 1013.8mb 59f 60f
8:42  -  mph 1013.7mb 59f 60f
8:36  -  1 mph 1013.8mb 59f 59f
8:30  -  1 mph 1013.8mb 59f 58f
8:24 1
mph
1013.9mb 59f 57f
8:18 1 2 mph 1013.9mb 59f 57f
8:12 1 2 mph 1013.9mb 59f 57f
8:06 1 2 mph 1013.9mb 59f 57f
8:00 2 3 mph 1013.9mb 59f 57f
7:54 1 2 mph 1013.7mb 59f 59f
7:48  -  1 mph 1013.7mb 59f 59f
7:42  -  1 mph 1013.7mb 59f 60f
7:36  -  mph 1013.7mb 59f 62f
7:30  -  1 mph 1013.6mb 59f 61f
7:24  -  1 mph 1013.6mb 59f 59f
7:18  -  2 mph 1013.7mb 58f 60f
7:12 1 2 mph 1013.7mb 58f 59f
7:06  -  1 mph 1013.7mb 58f 59f
7:00  -  3 mph 1013.7mb 58f 58f
6:54 2
mph
1013.7mb 58f 56f
6:48 1 2 mph 1013.6mb 58f 57f
6:42  -  2 mph 1013.5mb 58f 56f
6:36 1
mph
1013.3mb 58f 55f
6:30  -  3 mph 1013.1mb 58f 55f
6:24 2 5 mph 1012.8mb 58f 53f
6:18 5 6 mph 1012.9mb 58f 53f
6:12 5 7 mph 1012.9mb 58f 53f
6:06 6 7 mph 1012.8mb 58f 52f
6:00 6 7 mph 1012.8mb 58f 52f
5:54 6 8 mph 1012.9mb 58f 52f
5:48 7 8 mph 1013mb 58f 52f
5:42 6 8 mph 1013mb 58f 52f
5:36 7 8 mph 1013.1mb 58f 52f
5:30 6
mph
1013.1mb 58f 52f
5:24 5 6 mph 1013.1mb 58f 52f
5:18 6
mph
1013mb 58f 52f
5:12 6
mph
1013mb 58f 52f
5:06 3 5 mph 1013mb 58f 53f
5:00 2 3 mph 1013mb 58f 52f
4:54 2
mph
1013mb 58f 52f
4:48 1 3 mph 1012.9mb 58f 53f
4:42  -  2 mph 1013mb 58f 52f
4:36 3 6 mph 1012.8mb 58f 51f
4:30 5 6 mph 1012.7mb 58f 52f
4:24 2 3 mph 1012.6mb 58f 53f
4:18 1 2 mph 1012.6mb 58f 52f
4:12 1 2 mph 1012.6mb 58f 52f
4:06 1 2 mph 1012.5mb 58f 52f
4:00 2
mph
1012.5mb 58f 52f
3:54 2 3 mph 1012.5mb 58f 52f
3:48 2
mph
1012.4mb 58f 52f
3:42 2 3 mph 1012.3mb 58f 52f
3:36 3 5 mph 1012.3mb 58f 53f
3:30 2 3 mph 1012.3mb 58f 53f
3:24 3
mph
1012.3mb 58f 53f
3:18 2 3 mph 1012.3mb 58f 53f
3:12 1 2 mph 1012.4mb 58f 53f
3:06 1 3 mph 1012.3mb 58f 53f
3:00 2 3 mph 1012.2mb 58f 53f
2:54 2 3 mph 1012.1mb 58f 53f
2:48 2 5 mph 1012.2mb 58f 53f
2:42 3 6 mph 1012.3mb 58f 54f
2:36 5 6 mph 1012.3mb 58f 54f
2:30 5 6 mph 1012.4mb 58f 54f
2:24 6
mph
1012.5mb 58f 53f
2:18 3 5 mph 1012.6mb 58f 53f
2:12 5
mph
1012.7mb 58f 54f
2:06 3 5 mph 1012.8mb 58f 54f
2:00 3 5 mph 1013mb 58f 54f
1:54 2 3 mph 1013mb 58f 55f
1:48  -  mph 1012.9mb 58f 55f
1:42  -  mph 1012.8mb 58f 55f
1:36  -  mph 1012.9mb 58f 55f
1:30 5 6 mph 1013mb 58f 56f
1:24 5 6 mph 1012.9mb 58f 56f
1:18 5 7 mph 1013mb 58f 56f
1:12 5 6 mph 1013.1mb 58f 55f
1:06 5 8 mph 1013mb 58f 54f
1:00 2 6 mph 1013mb 58f 54f
12:54 3 5 mph 1012.8mb 57f 54f
12:48 2 5 mph 1012.7mb 57f 54f
12:42 6 7 mph 1012.4mb 57f 54f
12:36 6 7 mph 1012.4mb 57f 55f
12:30 6 7 mph 1012.3mb 57f 55f
12:24 3 5 mph 1012.3mb 57f 55f
12:18 5 6 mph 1012.4mb 57f 54f
12:12 6 7 mph 1012.4mb 57f 55f
12:06 6
mph
1012.4mb 58f 55f
12:00 6
mph
1012.4mb 58f 55f
So 05/22 11:54 6
mph
1012.4mb 58f 56f
11:48 5
mph
1012.5mb 58f 56f
11:42 3
mph
1012.5mb 58f 56f
11:36 3
mph
1012.5mb 58f 56f
11:30 3
mph
1012.6mb 58f 56f
11:24 2 3 mph 1012.6mb 58f 57f
11:18  -  mph 1012.6mb 58f 58f
11:12  -  mph 1012.6mb 58f 57f
11:06  -  mph 1012.7mb 59f 58f
11:00  -  mph 1012.7mb 59f -
10:54  -  mph 1012.6mb 59f -
10:48 2
mph
1012.7mb 59f -
10:42 1
mph
1012.7mb 59f -
10:36 1 2 mph 1012.8mb 59f -
10:30 1 3 mph 1012.8mb 59f -
10:24 2 3 mph 1012.8mb 59f -
10:18  -  mph 1012.7mb 59f -
10:12  -  mph 1012.6mb 59f -
10:06  -  mph 1012.6mb 59f -
10:00 3 5 mph 1012.6mb 59f 58f
9:54 3 6 mph 1012.5mb 59f 58f
9:48 5
mph
1012.4mb - -
9:42 5
mph
1012.3mb - -
9:36 3 5 mph 1012.2mb - -
9:30 3 5 mph 1012.2mb 59f 59f
9:24 5
mph
1012.1mb 59f 59f
9:18  -  mph 1012.1mb 59f 59f
9:12  -  mph 1012.1mb 59f 59f
9:06  -  mph 1012mb 59f 60f
9:00 6
mph
1011.9mb 59f 60f
8:54 6
mph
1011.8mb 59f 60f
8:48 6 8 mph 1011.6mb 59f -
8:42 7 8 mph 1011.5mb 59f -
8:36 7 9 mph 1011.4mb 59f -
8:30  -  mph 1011.3mb 59f -
8:24  -  mph 1011.4mb 59f -
8:18 6
mph
- 59f -
8:12 5 6 mph - 59f -
8:06 6 8 mph - 59f -
8:00  -  mph 1011mb 59f -
7:54  -  mph 1011mb 59f -
7:48  -  mph 1011mb 59f -
7:42  -  mph 1010.9mb 59f -
7:36  -  mph 1010.7mb 59f -
7:30  -  mph 1010.7mb 59f -
7:24  -  mph 1010.7mb 59f -
7:18  -  mph 1010.6mb 59f 63f
7:12  -  mph 1010.4mb 59f 63f
7:06  -  mph 1010.3mb 59f 63f
7:00  -  mph - 59f -
6:54  -  mph - 59f -
6:48 11 15 mph - 59f -
6:42 14 15 mph - 59f -
6:36 14 15 mph - 59f -
6:30  -  mph - 59f -
6:24  -  mph - 59f -
6:18 13 15 mph - 59f -
6:12 10 13 mph - 59f -
6:06 11 13 mph - 59f -
6:00  -  mph - 59f -
5:54  -  mph - 59f -
5:48  -  mph 1010.1mb 59f 65f
5:42  -  mph 1010mb 59f 64f
5:36  -  mph 1009.8mb 59f 65f
5:30 10 13 mph 1009.8mb 59f 65f
5:24 11 14 mph 1009.7mb 59f 65f
5:18 13 15 mph 1009.6mb 59f 65f
5:12 14 15 mph 1009.6mb 59f 65f
5:06 13 14 mph 1009.6mb 59f 65f
5:00 13 14 mph 1009.6mb 59f 65f
4:54 13 15 mph 1009.5mb 59f 65f
4:48 14 16 mph 1009.4mb 58f 65f
4:42 13 17 mph 1009.3mb 58f 65f
4:36 15 17 mph 1009.2mb 58f 65f
4:30 15 18 mph 1009.2mb 58f 65f
4:24 15 17 mph 1009.3mb 58f 65f
4:18 14 16 mph 1009.3mb 58f 65f
4:12 15 17 mph 1009.4mb 58f 65f
4:06 14 16 mph 1009.4mb 58f 65f
4:00 14 16 mph 1009.4mb 58f 65f
3:54 14 20 mph 1009.4mb 58f 65f
3:48 17 20 mph 1009.4mb 58f 65f
3:42 13 18 mph 1009.4mb 58f 64f
3:36 16 18 mph 1009.4mb 58f 65f
3:30 14 17 mph 1009.4mb 58f 65f
3:24 16 18 mph 1009.3mb 58f 65f
3:18 13 16 mph 1009.3mb 58f 65f
3:12 13 15 mph 1009.3mb 58f 64f
3:06 13 15 mph 1009.4mb 58f 65f
3:00 14 17 mph 1009.4mb 58f 65f
2:54 14 17 mph 1009.4mb 58f 65f
2:48 14 15 mph 1009.4mb 58f 64f
2:42 14 16 mph 1009.4mb 58f 65f
2:36 15 17 mph 1009.3mb 58f 65f
2:30 14 20 mph 1009.4mb 58f 65f
2:24 13 16 mph 1009.3mb 58f 64f
2:18 15 20 mph 1009.3mb 58f 66f
2:12 16 18 mph 1009.3mb 58f 65f
2:06 15 18 mph 1009.3mb 58f 66f
2:00 16 20 mph 1009.2mb 57f 65f
1:54 15 18 mph 1009.2mb 57f 65f
1:48 14 17 mph 1009.3mb 57f 64f
1:42 14 18 mph 1009.1mb 57f 64f
1:36 15 18 mph 1009mb 57f 64f
1:30 15 18 mph 1009mb 57f 64f
1:24 15 20 mph 1008.9mb 57f 64f
1:18 16 20 mph 1008.9mb 57f 64f
1:12 18 21 mph 1008.9mb 57f 63f
1:06 16 20 mph 1008.9mb 57f 64f
1:00 16 22 mph 1008.9mb 57f 63f
12:54 17 21 mph 1009mb 57f 63f
12:48 14 18 mph 1009.1mb 57f 63f
12:42 13 14 mph 1009.1mb 56f 62f
12:36 11 13 mph 1009.2mb 56f 62f
12:30 10 13 mph 1009.3mb 56f 62f
12:24 13 14 mph 1009.4mb 56f 62f
12:18 11 13 mph 1009.5mb 56f 62f
12:12 9 11 mph 1009.5mb 56f 62f
12:06 9 11 mph 1009.5mb 56f 61f
12:00 10 13 mph 1009.5mb 56f 61f
11:54 10 11 mph 1009.6mb 56f 61f
11:48 9 13 mph 1009.6mb 56f 61f
11:42 11 13 mph 1009.7mb 56f 61f
11:36 9 10 mph 1009.7mb 56f 60f
11:30 10 11 mph 1009.8mb 56f 60f
11:24 10 13 mph 1009.8mb 56f 60f
11:18 11 14 mph 1009.8mb 56f 60f
11:12 13 14 mph 1009.9mb 56f 60f
11:06 13 14 mph 1009.9mb 56f 60f
11:00 14 16 mph 1009.9mb 57f 60f
10:54 13 15 mph 1010mb 57f 60f
10:48 11 15 mph 1010mb 57f 60f
10:42 13 14 mph 1010mb 57f 60f
10:36 13 15 mph 1009.9mb 57f 60f
10:30 11 14 mph 1009.9mb 57f 60f
10:24 13 14 mph 1009.8mb 57f 60f
10:18 13 16 mph 1009.8mb 57f 60f
10:12 15 16 mph 1009.8mb 57f 60f
10:06 13 16 mph 1009.8mb 57f 60f
10:00 15 16 mph 1009.8mb 57f 60f
9:54 13 15 mph 1009.8mb 57f 60f
9:48 13 15 mph 1009.8mb 57f 60f
9:42 14 16 mph 1009.8mb 57f 60f
9:36 11 14 mph 1009.9mb 57f 60f
9:30 13 15 mph 1009.9mb 57f 59f
9:24 11 16 mph 1009.8mb 57f 59f
9:18 13 14 mph 1009.8mb 57f 59f
9:12 13 15 mph 1009.7mb 57f 60f
9:06 11 14 mph 1009.7mb 57f 59f
9:00 13 14 mph 1009.6mb 57f 59f
8:54 11 13 mph 1009.5mb 57f 59f